sensor_id;sensor_type;location;lat;lon;timestamp;P1;durP1;ratioP1;P2;durP2;ratioP2
32295;SDS011;18781;51.550;5.418;2023-04-16T00:00:55;14.80;;;3.80;;
32295;SDS011;18781;51.550;5.418;2023-04-16T00:03:21;9.82;;;3.33;;
32295;SDS011;18781;51.550;5.418;2023-04-16T00:05:47;19.38;;;3.92;;
32295;SDS011;18781;51.550;5.418;2023-04-16T00:08:13;17.65;;;3.25;;
32295;SDS011;18781;51.550;5.418;2023-04-16T00:10:39;19.10;;;4.32;;
32295;SDS011;18781;51.550;5.418;2023-04-16T00:13:05;14.65;;;3.20;;
32295;SDS011;18781;51.550;5.418;2023-04-16T00:15:31;15.95;;;3.88;;
32295;SDS011;18781;51.550;5.418;2023-04-16T00:17:56;18.63;;;3.53;;
32295;SDS011;18781;51.550;5.418;2023-04-16T00:20:22;17.38;;;3.75;;
32295;SDS011;18781;51.550;5.418;2023-04-16T00:22:48;12.30;;;3.40;;
32295;SDS011;18781;51.550;5.418;2023-04-16T00:25:13;15.13;;;3.58;;
32295;SDS011;18781;51.550;5.418;2023-04-16T00:27:39;19.73;;;3.72;;
32295;SDS011;18781;51.550;5.418;2023-04-16T00:30:05;11.15;;;3.45;;
32295;SDS011;18781;51.550;5.418;2023-04-16T00:32:32;14.10;;;3.60;;
32295;SDS011;18781;51.550;5.418;2023-04-16T00:34:58;14.73;;;4.00;;
32295;SDS011;18781;51.550;5.418;2023-04-16T00:37:23;13.40;;;3.90;;
32295;SDS011;18781;51.550;5.418;2023-04-16T00:39:49;17.38;;;4.63;;
32295;SDS011;18781;51.550;5.418;2023-04-16T00:42:15;19.70;;;3.83;;
32295;SDS011;18781;51.550;5.418;2023-04-16T00:44:42;17.40;;;4.93;;
32295;SDS011;18781;51.550;5.418;2023-04-16T00:47:08;12.80;;;4.30;;
32295;SDS011;18781;51.550;5.418;2023-04-16T00:49:34;20.83;;;4.85;;
32295;SDS011;18781;51.550;5.418;2023-04-16T00:52:00;16.88;;;4.97;;
32295;SDS011;18781;51.550;5.418;2023-04-16T00:54:27;24.98;;;4.90;;
32295;SDS011;18781;51.550;5.418;2023-04-16T00:56:53;18.65;;;5.13;;
32295;SDS011;18781;51.550;5.418;2023-04-16T00:59:18;24.17;;;5.38;;
32295;SDS011;18781;51.550;5.418;2023-04-16T01:01:44;14.05;;;4.60;;
32295;SDS011;18781;51.550;5.418;2023-04-16T01:04:10;14.35;;;5.20;;
32295;SDS011;18781;51.550;5.418;2023-04-16T01:06:36;14.93;;;5.47;;
32295;SDS011;18781;51.550;5.418;2023-04-16T01:09:02;16.40;;;5.10;;
32295;SDS011;18781;51.550;5.418;2023-04-16T01:11:27;14.68;;;5.00;;
32295;SDS011;18781;51.550;5.418;2023-04-16T01:13:53;17.00;;;5.82;;
32295;SDS011;18781;51.550;5.418;2023-04-16T01:16:19;15.30;;;5.40;;
32295;SDS011;18781;51.550;5.418;2023-04-16T01:18:45;12.00;;;5.03;;
32295;SDS011;18781;51.550;5.418;2023-04-16T01:21:10;15.40;;;5.18;;
32295;SDS011;18781;51.550;5.418;2023-04-16T01:23:36;17.92;;;5.82;;
32295;SDS011;18781;51.550;5.418;2023-04-16T01:26:01;17.40;;;4.93;;
32295;SDS011;18781;51.550;5.418;2023-04-16T01:28:27;16.23;;;5.22;;
32295;SDS011;18781;51.550;5.418;2023-04-16T01:30:53;13.60;;;4.88;;
32295;SDS011;18781;51.550;5.418;2023-04-16T01:33:19;22.35;;;5.88;;
32295;SDS011;18781;51.550;5.418;2023-04-16T01:35:45;18.63;;;5.25;;
32295;SDS011;18781;51.550;5.418;2023-04-16T01:38:11;17.48;;;5.57;;
32295;SDS011;18781;51.550;5.418;2023-04-16T01:40:36;13.25;;;5.03;;
32295;SDS011;18781;51.550;5.418;2023-04-16T01:43:02;15.18;;;5.22;;
32295;SDS011;18781;51.550;5.418;2023-04-16T01:45:30;18.40;;;5.47;;
32295;SDS011;18781;51.550;5.418;2023-04-16T01:47:56;16.15;;;5.15;;
32295;SDS011;18781;51.550;5.418;2023-04-16T01:50:21;12.60;;;4.60;;
32295;SDS011;18781;51.550;5.418;2023-04-16T01:52:47;18.77;;;5.50;;
32295;SDS011;18781;51.550;5.418;2023-04-16T01:55:13;13.65;;;5.30;;
32295;SDS011;18781;51.550;5.418;2023-04-16T01:57:39;16.73;;;5.57;;
32295;SDS011;18781;51.550;5.418;2023-04-16T02:00:04;16.55;;;5.18;;
32295;SDS011;18781;51.550;5.418;2023-04-16T02:02:33;11.57;;;5.00;;
32295;SDS011;18781;51.550;5.418;2023-04-16T02:04:59;17.10;;;5.38;;
32295;SDS011;18781;51.550;5.418;2023-04-16T02:07:25;12.63;;;5.45;;
32295;SDS011;18781;51.550;5.418;2023-04-16T02:09:51;12.95;;;5.20;;
32295;SDS011;18781;51.550;5.418;2023-04-16T02:12:16;13.43;;;4.85;;
32295;SDS011;18781;51.550;5.418;2023-04-16T02:14:42;21.27;;;5.63;;
32295;SDS011;18781;51.550;5.418;2023-04-16T02:17:08;13.90;;;5.47;;
32295;SDS011;18781;51.550;5.418;2023-04-16T02:19:33;16.52;;;5.00;;
32295;SDS011;18781;51.550;5.418;2023-04-16T02:21:59;17.42;;;5.22;;
32295;SDS011;18781;51.550;5.418;2023-04-16T02:24:25;10.68;;;5.20;;
32295;SDS011;18781;51.550;5.418;2023-04-16T02:26:51;17.00;;;5.03;;
32295;SDS011;18781;51.550;5.418;2023-04-16T02:29:17;13.30;;;4.40;;
32295;SDS011;18781;51.550;5.418;2023-04-16T02:31:43;12.82;;;5.03;;
32295;SDS011;18781;51.550;5.418;2023-04-16T02:34:10;16.67;;;4.68;;
32295;SDS011;18781;51.550;5.418;2023-04-16T02:36:36;16.83;;;5.10;;
32295;SDS011;18781;51.550;5.418;2023-04-16T02:39:01;12.20;;;4.07;;
32295;SDS011;18781;51.550;5.418;2023-04-16T02:41:27;9.73;;;4.05;;
32295;SDS011;18781;51.550;5.418;2023-04-16T02:43:53;17.17;;;4.50;;
32295;SDS011;18781;51.550;5.418;2023-04-16T02:46:18;12.50;;;4.38;;
32295;SDS011;18781;51.550;5.418;2023-04-16T02:48:44;12.80;;;5.07;;
32295;SDS011;18781;51.550;5.418;2023-04-16T02:51:10;17.27;;;4.95;;
32295;SDS011;18781;51.550;5.418;2023-04-16T02:53:35;14.07;;;5.13;;
32295;SDS011;18781;51.550;5.418;2023-04-16T02:56:01;12.82;;;4.93;;
32295;SDS011;18781;51.550;5.418;2023-04-16T02:58:26;11.70;;;4.53;;
32295;SDS011;18781;51.550;5.418;2023-04-16T03:00:52;14.18;;;5.13;;
32295;SDS011;18781;51.550;5.418;2023-04-16T03:03:18;13.30;;;4.75;;
32295;SDS011;18781;51.550;5.418;2023-04-16T03:05:45;12.65;;;4.63;;
32295;SDS011;18781;51.550;5.418;2023-04-16T03:08:10;15.52;;;5.75;;
32295;SDS011;18781;51.550;5.418;2023-04-16T03:10:36;11.13;;;5.05;;
32295;SDS011;18781;51.550;5.418;2023-04-16T03:13:02;18.73;;;5.82;;
32295;SDS011;18781;51.550;5.418;2023-04-16T03:15:28;17.38;;;5.65;;
32295;SDS011;18781;51.550;5.418;2023-04-16T03:17:54;16.25;;;6.10;;
32295;SDS011;18781;51.550;5.418;2023-04-16T03:20:20;18.23;;;6.90;;
32295;SDS011;18781;51.550;5.418;2023-04-16T03:22:46;15.55;;;7.45;;
32295;SDS011;18781;51.550;5.418;2023-04-16T03:25:11;18.83;;;6.65;;
32295;SDS011;18781;51.550;5.418;2023-04-16T03:27:37;18.08;;;7.40;;
32295;SDS011;18781;51.550;5.418;2023-04-16T03:30:07;18.38;;;7.38;;
32295;SDS011;18781;51.550;5.418;2023-04-16T03:32:34;17.65;;;8.00;;
32295;SDS011;18781;51.550;5.418;2023-04-16T03:35:00;15.07;;;6.90;;
32295;SDS011;18781;51.550;5.418;2023-04-16T03:37:25;16.17;;;7.88;;
32295;SDS011;18781;51.550;5.418;2023-04-16T03:39:51;16.17;;;8.13;;
32295;SDS011;18781;51.550;5.418;2023-04-16T03:42:17;22.15;;;8.20;;
32295;SDS011;18781;51.550;5.418;2023-04-16T03:44:42;13.48;;;7.65;;
32295;SDS011;18781;51.550;5.418;2023-04-16T03:47:08;18.00;;;8.45;;
32295;SDS011;18781;51.550;5.418;2023-04-16T03:49:33;18.05;;;8.38;;
32295;SDS011;18781;51.550;5.418;2023-04-16T03:51:59;16.67;;;8.25;;
32295;SDS011;18781;51.550;5.418;2023-04-16T03:54:25;14.35;;;7.82;;
32295;SDS011;18781;51.550;5.418;2023-04-16T03:56:50;18.73;;;8.43;;
32295;SDS011;18781;51.550;5.418;2023-04-16T03:59:16;17.05;;;8.50;;
32295;SDS011;18781;51.550;5.418;2023-04-16T04:01:42;22.55;;;9.23;;
32295;SDS011;18781;51.550;5.418;2023-04-16T04:04:08;20.00;;;9.40;;
32295;SDS011;18781;51.550;5.418;2023-04-16T04:06:34;19.13;;;9.80;;
32295;SDS011;18781;51.550;5.418;2023-04-16T04:08:59;17.33;;;9.10;;
32295;SDS011;18781;51.550;5.418;2023-04-16T04:11:25;19.33;;;9.13;;
32295;SDS011;18781;51.550;5.418;2023-04-16T04:13:51;21.50;;;9.80;;
32295;SDS011;18781;51.550;5.418;2023-04-16T04:16:16;19.33;;;9.55;;
32295;SDS011;18781;51.550;5.418;2023-04-16T04:18:42;21.60;;;9.52;;
32295;SDS011;18781;51.550;5.418;2023-04-16T04:21:08;17.10;;;8.88;;
32295;SDS011;18781;51.550;5.418;2023-04-16T04:23:34;19.58;;;9.38;;
32295;SDS011;18781;51.550;5.418;2023-04-16T04:26:00;22.00;;;8.65;;
32295;SDS011;18781;51.550;5.418;2023-04-16T04:28:28;21.35;;;9.55;;
32295;SDS011;18781;51.550;5.418;2023-04-16T04:30:54;24.35;;;9.48;;
32295;SDS011;18781;51.550;5.418;2023-04-16T04:33:21;18.35;;;8.85;;
32295;SDS011;18781;51.550;5.418;2023-04-16T04:35:47;24.63;;;9.30;;
32295;SDS011;18781;51.550;5.418;2023-04-16T04:38:12;17.50;;;8.50;;
32295;SDS011;18781;51.550;5.418;2023-04-16T04:40:38;23.08;;;9.07;;
32295;SDS011;18781;51.550;5.418;2023-04-16T04:43:03;25.27;;;8.85;;
32295;SDS011;18781;51.550;5.418;2023-04-16T04:45:29;18.77;;;8.43;;
32295;SDS011;18781;51.550;5.418;2023-04-16T04:47:55;24.75;;;9.07;;
32295;SDS011;18781;51.550;5.418;2023-04-16T04:50:20;24.55;;;9.10;;
32295;SDS011;18781;51.550;5.418;2023-04-16T04:52:46;17.63;;;9.00;;
32295;SDS011;18781;51.550;5.418;2023-04-16T04:55:12;17.10;;;8.88;;
32295;SDS011;18781;51.550;5.418;2023-04-16T04:57:39;16.90;;;8.65;;
32295;SDS011;18781;51.550;5.418;2023-04-16T05:00:05;26.48;;;9.43;;
32295;SDS011;18781;51.550;5.418;2023-04-16T05:02:32;16.80;;;8.82;;
32295;SDS011;18781;51.550;5.418;2023-04-16T05:04:57;19.52;;;9.25;;
32295;SDS011;18781;51.550;5.418;2023-04-16T05:07:23;21.92;;;9.00;;
32295;SDS011;18781;51.550;5.418;2023-04-16T05:09:49;22.20;;;9.55;;
32295;SDS011;18781;51.550;5.418;2023-04-16T05:12:15;18.30;;;9.40;;
32295;SDS011;18781;51.550;5.418;2023-04-16T05:14:40;20.35;;;8.93;;
32295;SDS011;18781;51.550;5.418;2023-04-16T05:17:06;24.92;;;9.32;;
32295;SDS011;18781;51.550;5.418;2023-04-16T05:19:32;27.73;;;9.60;;
32295;SDS011;18781;51.550;5.418;2023-04-16T05:21:58;24.63;;;9.10;;
32295;SDS011;18781;51.550;5.418;2023-04-16T05:24:24;22.40;;;10.07;;
32295;SDS011;18781;51.550;5.418;2023-04-16T05:26:49;21.13;;;9.75;;
32295;SDS011;18781;51.550;5.418;2023-04-16T05:29:15;25.52;;;9.88;;
32295;SDS011;18781;51.550;5.418;2023-04-16T05:31:40;20.60;;;9.38;;
32295;SDS011;18781;51.550;5.418;2023-04-16T05:34:06;21.15;;;9.68;;
32295;SDS011;18781;51.550;5.418;2023-04-16T05:36:32;23.15;;;9.15;;
32295;SDS011;18781;51.550;5.418;2023-04-16T05:38:57;20.15;;;9.45;;
32295;SDS011;18781;51.550;5.418;2023-04-16T05:41:23;26.30;;;10.23;;
32295;SDS011;18781;51.550;5.418;2023-04-16T05:43:49;26.85;;;10.85;;
32295;SDS011;18781;51.550;5.418;2023-04-16T05:46:15;19.77;;;10.23;;
32295;SDS011;18781;51.550;5.418;2023-04-16T05:48:41;24.70;;;10.25;;
32295;SDS011;18781;51.550;5.418;2023-04-16T05:51:07;22.33;;;10.68;;
32295;SDS011;18781;51.550;5.418;2023-04-16T05:53:32;22.60;;;10.25;;
32295;SDS011;18781;51.550;5.418;2023-04-16T05:55:58;28.20;;;11.30;;
32295;SDS011;18781;51.550;5.418;2023-04-16T05:58:23;25.38;;;10.88;;
32295;SDS011;18781;51.550;5.418;2023-04-16T06:00:49;29.33;;;12.13;;
32295;SDS011;18781;51.550;5.418;2023-04-16T06:03:15;28.95;;;11.20;;
32295;SDS011;18781;51.550;5.418;2023-04-16T06:05:41;30.30;;;12.65;;
32295;SDS011;18781;51.550;5.418;2023-04-16T06:08:07;24.45;;;11.10;;
32295;SDS011;18781;51.550;5.418;2023-04-16T06:10:33;23.77;;;11.55;;
32295;SDS011;18781;51.550;5.418;2023-04-16T06:12:59;26.42;;;11.32;;
32295;SDS011;18781;51.550;5.418;2023-04-16T06:15:24;30.20;;;12.05;;
32295;SDS011;18781;51.550;5.418;2023-04-16T06:17:50;27.75;;;12.13;;
32295;SDS011;18781;51.550;5.418;2023-04-16T06:20:15;29.52;;;13.23;;
32295;SDS011;18781;51.550;5.418;2023-04-16T06:22:41;31.42;;;12.50;;
32295;SDS011;18781;51.550;5.418;2023-04-16T06:25:07;28.30;;;12.68;;
32295;SDS011;18781;51.550;5.418;2023-04-16T06:27:33;30.60;;;12.35;;
32295;SDS011;18781;51.550;5.418;2023-04-16T06:29:58;27.08;;;12.40;;
32295;SDS011;18781;51.550;5.418;2023-04-16T06:32:24;33.58;;;12.35;;
32295;SDS011;18781;51.550;5.418;2023-04-16T06:34:50;27.05;;;11.93;;
32295;SDS011;18781;51.550;5.418;2023-04-16T06:37:15;28.40;;;12.18;;
32295;SDS011;18781;51.550;5.418;2023-04-16T06:39:41;27.02;;;11.80;;
32295;SDS011;18781;51.550;5.418;2023-04-16T06:42:06;32.45;;;13.40;;
32295;SDS011;18781;51.550;5.418;2023-04-16T06:44:32;31.67;;;12.27;;
32295;SDS011;18781;51.550;5.418;2023-04-16T06:46:59;32.05;;;13.18;;
32295;SDS011;18781;51.550;5.418;2023-04-16T06:49:24;32.50;;;13.27;;
32295;SDS011;18781;51.550;5.418;2023-04-16T06:51:50;32.95;;;12.60;;
32295;SDS011;18781;51.550;5.418;2023-04-16T06:54:16;32.83;;;13.40;;
32295;SDS011;18781;51.550;5.418;2023-04-16T06:56:41;32.05;;;13.15;;
32295;SDS011;18781;51.550;5.418;2023-04-16T06:59:07;31.20;;;14.10;;
32295;SDS011;18781;51.550;5.418;2023-04-16T07:01:32;34.55;;;13.10;;
32295;SDS011;18781;51.550;5.418;2023-04-16T07:03:58;31.58;;;13.65;;
32295;SDS011;18781;51.550;5.418;2023-04-16T07:06:24;41.60;;;13.90;;
32295;SDS011;18781;51.550;5.418;2023-04-16T07:08:51;42.22;;;14.38;;
32295;SDS011;18781;51.550;5.418;2023-04-16T07:11:17;38.20;;;14.48;;
32295;SDS011;18781;51.550;5.418;2023-04-16T07:13:43;35.90;;;14.65;;
32295;SDS011;18781;51.550;5.418;2023-04-16T07:16:08;36.45;;;14.45;;
32295;SDS011;18781;51.550;5.418;2023-04-16T07:21:57;41.80;;;16.20;;
32295;SDS011;18781;51.550;5.418;2023-04-16T07:24:23;37.42;;;15.00;;
32295;SDS011;18781;51.550;5.418;2023-04-16T07:26:49;41.80;;;16.20;;
32295;SDS011;18781;51.550;5.418;2023-04-16T07:29:14;45.80;;;17.20;;
32295;SDS011;18781;51.550;5.418;2023-04-16T07:31:40;41.30;;;16.80;;
32295;SDS011;18781;51.550;5.418;2023-04-16T07:34:05;43.10;;;16.83;;
32295;SDS011;18781;51.550;5.418;2023-04-16T07:36:31;47.47;;;17.65;;
32295;SDS011;18781;51.550;5.418;2023-04-16T07:38:57;41.58;;;17.20;;
32295;SDS011;18781;51.550;5.418;2023-04-16T07:41:22;37.90;;;17.35;;
32295;SDS011;18781;51.550;5.418;2023-04-16T07:43:48;42.22;;;17.27;;
32295;SDS011;18781;51.550;5.418;2023-04-16T07:46:14;41.65;;;16.67;;
32295;SDS011;18781;51.550;5.418;2023-04-16T07:48:41;51.50;;;17.70;;
32295;SDS011;18781;51.550;5.418;2023-04-16T07:51:07;46.13;;;17.85;;
32295;SDS011;18781;51.550;5.418;2023-04-16T07:53:32;46.22;;;18.08;;
32295;SDS011;18781;51.550;5.418;2023-04-16T07:55:58;52.90;;;18.42;;
32295;SDS011;18781;51.550;5.418;2023-04-16T07:58:23;50.35;;;18.80;;
32295;SDS011;18781;51.550;5.418;2023-04-16T08:00:49;52.22;;;18.77;;
32295;SDS011;18781;51.550;5.418;2023-04-16T08:03:15;46.08;;;17.80;;
32295;SDS011;18781;51.550;5.418;2023-04-16T08:05:41;50.28;;;18.33;;
32295;SDS011;18781;51.550;5.418;2023-04-16T08:08:07;45.35;;;20.45;;
32295;SDS011;18781;51.550;5.418;2023-04-16T08:10:32;46.85;;;20.33;;
32295;SDS011;18781;51.550;5.418;2023-04-16T08:13:01;54.65;;;18.48;;
32295;SDS011;18781;51.550;5.418;2023-04-16T08:15:27;42.30;;;19.05;;
32295;SDS011;18781;51.550;5.418;2023-04-16T08:17:53;41.78;;;19.67;;
32295;SDS011;18781;51.550;5.418;2023-04-16T08:20:18;56.78;;;19.52;;
32295;SDS011;18781;51.550;5.418;2023-04-16T08:22:44;54.97;;;20.27;;
32295;SDS011;18781;51.550;5.418;2023-04-16T08:25:10;51.42;;;19.67;;
32295;SDS011;18781;51.550;5.418;2023-04-16T08:27:36;53.47;;;19.80;;
32295;SDS011;18781;51.550;5.418;2023-04-16T08:30:02;46.15;;;18.42;;
32295;SDS011;18781;51.550;5.418;2023-04-16T08:32:28;48.13;;;19.10;;
32295;SDS011;18781;51.550;5.418;2023-04-16T08:34:53;42.10;;;17.98;;
32295;SDS011;18781;51.550;5.418;2023-04-16T08:37:19;46.10;;;18.77;;
32295;SDS011;18781;51.550;5.418;2023-04-16T08:39:44;58.25;;;18.60;;
32295;SDS011;18781;51.550;5.418;2023-04-16T08:42:33;48.50;;;21.02;;
32295;SDS011;18781;51.550;5.418;2023-04-16T08:45:10;48.40;;;18.38;;
32295;SDS011;18781;51.550;5.418;2023-04-16T08:47:44;47.33;;;19.55;;
32295;SDS011;18781;51.550;5.418;2023-04-16T08:50:12;43.67;;;19.52;;
32295;SDS011;18781;51.550;5.418;2023-04-16T08:52:42;50.47;;;20.35;;
32295;SDS011;18781;51.550;5.418;2023-04-16T08:55:14;49.08;;;18.70;;
32295;SDS011;18781;51.550;5.418;2023-04-16T08:57:43;57.80;;;19.65;;
32295;SDS011;18781;51.550;5.418;2023-04-16T09:00:17;49.28;;;19.42;;
32295;SDS011;18781;51.550;5.418;2023-04-16T09:02:43;48.88;;;18.65;;
32295;SDS011;18781;51.550;5.418;2023-04-16T09:05:09;57.72;;;19.67;;
32295;SDS011;18781;51.550;5.418;2023-04-16T09:07:41;48.90;;;20.08;;
32295;SDS011;18781;51.550;5.418;2023-04-16T09:10:11;46.50;;;19.17;;
32295;SDS011;18781;51.550;5.418;2023-04-16T09:12:41;50.83;;;19.23;;
32295;SDS011;18781;51.550;5.418;2023-04-16T09:15:10;51.15;;;19.70;;
32295;SDS011;18781;51.550;5.418;2023-04-16T09:17:37;45.40;;;19.20;;
32295;SDS011;18781;51.550;5.418;2023-04-16T09:20:04;51.22;;;21.05;;
32295;SDS011;18781;51.550;5.418;2023-04-16T09:22:32;47.80;;;18.80;;
32295;SDS011;18781;51.550;5.418;2023-04-16T09:24:59;44.30;;;19.10;;
32295;SDS011;18781;51.550;5.418;2023-04-16T09:27:24;41.35;;;18.15;;
32295;SDS011;18781;51.550;5.418;2023-04-16T09:29:51;54.38;;;19.48;;
32295;SDS011;18781;51.550;5.418;2023-04-16T09:32:16;52.00;;;18.83;;
32295;SDS011;18781;51.550;5.418;2023-04-16T09:37:26;45.00;;;18.05;;
32295;SDS011;18781;51.550;5.418;2023-04-16T09:39:56;40.85;;;18.45;;
32295;SDS011;18781;51.550;5.418;2023-04-16T09:42:24;51.90;;;19.15;;
32295;SDS011;18781;51.550;5.418;2023-04-16T09:44:53;43.17;;;17.17;;
32295;SDS011;18781;51.550;5.418;2023-04-16T09:47:20;48.47;;;19.70;;
32295;SDS011;18781;51.550;5.418;2023-04-16T09:49:46;49.22;;;18.92;;
32295;SDS011;18781;51.550;5.418;2023-04-16T09:52:12;43.45;;;17.85;;
32295;SDS011;18781;51.550;5.418;2023-04-16T09:54:46;41.55;;;18.58;;
32295;SDS011;18781;51.550;5.418;2023-04-16T09:57:19;44.65;;;19.00;;
32295;SDS011;18781;51.550;5.418;2023-04-16T09:59:46;47.78;;;20.08;;
32295;SDS011;18781;51.550;5.418;2023-04-16T10:02:12;47.58;;;20.27;;
32295;SDS011;18781;51.550;5.418;2023-04-16T10:04:44;44.65;;;18.83;;
32295;SDS011;18781;51.550;5.418;2023-04-16T10:07:10;36.20;;;17.73;;
32295;SDS011;18781;51.550;5.418;2023-04-16T10:09:37;45.90;;;18.50;;
32295;SDS011;18781;51.550;5.418;2023-04-16T10:12:04;38.63;;;18.77;;
32295;SDS011;18781;51.550;5.418;2023-04-16T10:14:30;42.70;;;21.30;;
32295;SDS011;18781;51.550;5.418;2023-04-16T10:16:56;46.08;;;20.80;;
32295;SDS011;18781;51.550;5.418;2023-04-16T10:19:22;43.60;;;20.48;;
32295;SDS011;18781;51.550;5.418;2023-04-16T10:21:49;48.53;;;20.27;;
32295;SDS011;18781;51.550;5.418;2023-04-16T10:24:15;40.88;;;19.45;;
32295;SDS011;18781;51.550;5.418;2023-04-16T10:26:42;42.78;;;20.20;;
32295;SDS011;18781;51.550;5.418;2023-04-16T10:29:08;44.60;;;20.45;;
32295;SDS011;18781;51.550;5.418;2023-04-16T10:31:36;42.42;;;19.92;;
32295;SDS011;18781;51.550;5.418;2023-04-16T10:34:02;40.90;;;20.80;;
32295;SDS011;18781;51.550;5.418;2023-04-16T10:36:28;41.08;;;19.13;;
32295;SDS011;18781;51.550;5.418;2023-04-16T10:38:58;42.63;;;19.80;;
32295;SDS011;18781;51.550;5.418;2023-04-16T10:41:25;38.45;;;18.80;;
32295;SDS011;18781;51.550;5.418;2023-04-16T10:43:51;39.05;;;20.60;;
32295;SDS011;18781;51.550;5.418;2023-04-16T10:46:17;34.25;;;19.00;;
32295;SDS011;18781;51.550;5.418;2023-04-16T10:48:43;42.60;;;19.90;;
32295;SDS011;18781;51.550;5.418;2023-04-16T10:51:21;39.20;;;19.15;;
32295;SDS011;18781;51.550;5.418;2023-04-16T10:53:49;37.08;;;20.02;;
32295;SDS011;18781;51.550;5.418;2023-04-16T10:56:21;41.60;;;21.08;;
32295;SDS011;18781;51.550;5.418;2023-04-16T10:58:53;44.25;;;19.90;;
32295;SDS011;18781;51.550;5.418;2023-04-16T11:01:25;36.58;;;20.10;;
32295;SDS011;18781;51.550;5.418;2023-04-16T11:04:24;41.75;;;19.45;;
32295;SDS011;18781;51.550;5.418;2023-04-16T11:06:43;44.05;;;21.60;;
32295;SDS011;18781;51.550;5.418;2023-04-16T11:12:11;35.17;;;18.63;;
32295;SDS011;18781;51.550;5.418;2023-04-16T11:14:39;38.50;;;18.58;;
32295;SDS011;18781;51.550;5.418;2023-04-16T11:17:05;33.17;;;17.38;;
32295;SDS011;18781;51.550;5.418;2023-04-16T11:19:30;33.53;;;19.05;;
32295;SDS011;18781;51.550;5.418;2023-04-16T11:21:57;35.33;;;19.00;;
32295;SDS011;18781;51.550;5.418;2023-04-16T11:24:27;33.97;;;17.70;;
32295;SDS011;18781;51.550;5.418;2023-04-16T11:26:54;30.58;;;17.35;;
32295;SDS011;18781;51.550;5.418;2023-04-16T11:29:19;33.55;;;17.00;;
32295;SDS011;18781;51.550;5.418;2023-04-16T11:31:52;37.03;;;17.13;;
32295;SDS011;18781;51.550;5.418;2023-04-16T11:34:18;35.10;;;17.02;;
32295;SDS011;18781;51.550;5.418;2023-04-16T11:36:45;37.60;;;17.02;;
32295;SDS011;18781;51.550;5.418;2023-04-16T11:39:11;31.02;;;16.70;;
32295;SDS011;18781;51.550;5.418;2023-04-16T11:41:43;31.77;;;15.90;;
32295;SDS011;18781;51.550;5.418;2023-04-16T11:44:25;28.70;;;15.32;;
32295;SDS011;18781;51.550;5.418;2023-04-16T11:46:52;26.83;;;15.45;;
32295;SDS011;18781;51.550;5.418;2023-04-16T11:49:30;32.60;;;16.40;;
32295;SDS011;18781;51.550;5.418;2023-04-16T11:51:56;27.42;;;16.17;;
32295;SDS011;18781;51.550;5.418;2023-04-16T11:54:22;30.33;;;16.73;;
32295;SDS011;18781;51.550;5.418;2023-04-16T11:56:51;32.95;;;18.55;;
32295;SDS011;18781;51.550;5.418;2023-04-16T11:59:18;39.03;;;19.23;;
32295;SDS011;18781;51.550;5.418;2023-04-16T12:01:46;32.72;;;18.77;;
32295;SDS011;18781;51.550;5.418;2023-04-16T12:04:14;29.83;;;18.23;;
32295;SDS011;18781;51.550;5.418;2023-04-16T12:09:28;34.72;;;17.05;;
32295;SDS011;18781;51.550;5.418;2023-04-16T12:11:54;30.25;;;17.60;;
32295;SDS011;18781;51.550;5.418;2023-04-16T12:14:19;30.17;;;17.02;;
32295;SDS011;18781;51.550;5.418;2023-04-16T12:16:46;34.80;;;17.33;;
32295;SDS011;18781;51.550;5.418;2023-04-16T12:19:12;30.48;;;15.75;;
32295;SDS011;18781;51.550;5.418;2023-04-16T12:24:11;32.00;;;17.40;;
32295;SDS011;18781;51.550;5.418;2023-04-16T12:26:44;34.20;;;16.33;;
32295;SDS011;18781;51.550;5.418;2023-04-16T12:29:22;27.95;;;15.88;;
32295;SDS011;18781;51.550;5.418;2023-04-16T12:31:54;26.10;;;17.38;;
32295;SDS011;18781;51.550;5.418;2023-04-16T12:34:20;31.00;;;16.27;;
32295;SDS011;18781;51.550;5.418;2023-04-16T12:36:46;31.55;;;15.60;;
32295;SDS011;18781;51.550;5.418;2023-04-16T12:39:13;26.33;;;15.18;;
32295;SDS011;18781;51.550;5.418;2023-04-16T12:41:40;32.53;;;16.02;;
32295;SDS011;18781;51.550;5.418;2023-04-16T12:44:07;32.33;;;16.25;;
32295;SDS011;18781;51.550;5.418;2023-04-16T12:46:36;32.45;;;18.23;;
32295;SDS011;18781;51.550;5.418;2023-04-16T12:49:08;28.60;;;15.07;;
32295;SDS011;18781;51.550;5.418;2023-04-16T12:51:34;49.38;;;22.80;;
32295;SDS011;18781;51.550;5.418;2023-04-16T12:54:01;37.47;;;19.55;;
32295;SDS011;18781;51.550;5.418;2023-04-16T12:56:28;29.70;;;15.77;;
32295;SDS011;18781;51.550;5.418;2023-04-16T12:58:55;26.67;;;15.40;;
32295;SDS011;18781;51.550;5.418;2023-04-16T13:01:20;24.48;;;13.95;;
32295;SDS011;18781;51.550;5.418;2023-04-16T13:03:46;21.70;;;14.38;;
32295;SDS011;18781;51.550;5.418;2023-04-16T13:06:12;25.15;;;14.30;;
32295;SDS011;18781;51.550;5.418;2023-04-16T13:08:39;25.88;;;14.85;;
32295;SDS011;18781;51.550;5.418;2023-04-16T13:11:06;23.38;;;13.68;;
32295;SDS011;18781;51.550;5.418;2023-04-16T13:13:32;19.70;;;12.07;;
32295;SDS011;18781;51.550;5.418;2023-04-16T13:15:58;23.85;;;14.00;;
32295;SDS011;18781;51.550;5.418;2023-04-16T13:18:24;22.33;;;13.13;;
32295;SDS011;18781;51.550;5.418;2023-04-16T13:20:51;23.40;;;13.98;;
32295;SDS011;18781;51.550;5.418;2023-04-16T13:23:17;21.42;;;14.63;;
32295;SDS011;18781;51.550;5.418;2023-04-16T13:25:43;22.00;;;13.18;;
32295;SDS011;18781;51.550;5.418;2023-04-16T13:28:09;24.15;;;12.73;;
32295;SDS011;18781;51.550;5.418;2023-04-16T13:30:34;26.80;;;14.07;;
32295;SDS011;18781;51.550;5.418;2023-04-16T13:33:00;22.98;;;14.27;;
32295;SDS011;18781;51.550;5.418;2023-04-16T13:35:25;31.98;;;14.85;;
32295;SDS011;18781;51.550;5.418;2023-04-16T13:37:51;27.65;;;14.52;;
32295;SDS011;18781;51.550;5.418;2023-04-16T13:40:17;22.10;;;13.20;;
32295;SDS011;18781;51.550;5.418;2023-04-16T13:42:42;25.15;;;13.25;;
32295;SDS011;18781;51.550;5.418;2023-04-16T13:45:08;20.25;;;12.48;;
32295;SDS011;18781;51.550;5.418;2023-04-16T13:47:34;21.02;;;12.98;;
32295;SDS011;18781;51.550;5.418;2023-04-16T13:50:00;28.60;;;15.30;;
32295;SDS011;18781;51.550;5.418;2023-04-16T13:52:26;23.98;;;13.32;;
32295;SDS011;18781;51.550;5.418;2023-04-16T13:54:51;26.00;;;13.52;;
32295;SDS011;18781;51.550;5.418;2023-04-16T13:57:17;33.30;;;14.00;;
32295;SDS011;18781;51.550;5.418;2023-04-16T13:59:43;27.73;;;16.20;;
32295;SDS011;18781;51.550;5.418;2023-04-16T14:02:09;23.42;;;14.77;;
32295;SDS011;18781;51.550;5.418;2023-04-16T14:04:35;26.58;;;14.35;;
32295;SDS011;18781;51.550;5.418;2023-04-16T14:07:01;31.88;;;17.40;;
32295;SDS011;18781;51.550;5.418;2023-04-16T14:09:26;37.28;;;20.17;;
32295;SDS011;18781;51.550;5.418;2023-04-16T14:11:52;29.25;;;16.17;;
32295;SDS011;18781;51.550;5.418;2023-04-16T14:14:18;35.25;;;16.20;;
32295;SDS011;18781;51.550;5.418;2023-04-16T14:16:44;37.50;;;15.93;;
32295;SDS011;18781;51.550;5.418;2023-04-16T14:19:09;30.65;;;16.55;;
32295;SDS011;18781;51.550;5.418;2023-04-16T14:21:35;30.35;;;15.35;;
32295;SDS011;18781;51.550;5.418;2023-04-16T14:24:01;27.15;;;15.02;;
32295;SDS011;18781;51.550;5.418;2023-04-16T14:26:27;26.13;;;16.85;;
32295;SDS011;18781;51.550;5.418;2023-04-16T14:28:52;30.23;;;16.45;;
32295;SDS011;18781;51.550;5.418;2023-04-16T14:31:18;33.47;;;18.98;;
32295;SDS011;18781;51.550;5.418;2023-04-16T14:33:44;37.03;;;17.27;;
32295;SDS011;18781;51.550;5.418;2023-04-16T14:36:10;30.77;;;19.23;;